首页
METAR-TAF:

METAR-TAF

机场 :

日内瓦国际机场

日内瓦, 瑞士

纬度: 46-15N, 经度: 006-08E, 海拔: 420米

当前天气观测

该预报发布于34分钟前的20:50 UTC
风速7节,风向西南
温度 16°C
湿度 82%
气压 1007 hPa
能见度10公里或以上
少量云层高于3500英尺
散云层高于5000英尺

METAR: LSGG 062050Z 23007KT 9999 FEW035 SCT050 16/13 Q1007 NOSIG

时间: 23:24 (21:24 UTC)

预报

该预报发布于59分钟前的20:25 UTC
预报有效从06日的 21点(UTC)到 08日的 03点(UTC)
风速3节,风向多变
能见度10公里或以上
散云层高于3000英尺
多云层高于7000英尺
短暂存在
从 06日的 21点(UTC)到 07日的 09点(UTC)
阵雨
几率 40% :
短暂存在
从 06日的 23点(UTC)到 07日的 04点(UTC)
风速15节,风向北转西北
散云层高于3000英尺, 塔状积云.
多云层高于5000英尺
大阵雨
几率 30% :
短暂存在
从 07日的 00点(UTC)到 07日的 03点(UTC)
少量云层高于3000英尺, 积雨云.
多云层高于4000英尺
雷暴, 雨
成为
从 07日的 10点(UTC)到 07日的 13点(UTC)
少量云层高于5000英尺
散云层高于7000英尺

TAF: LSGG 062025Z 0621/0803 VRB03KT 9999 SCT030 BKN070 TX17/0715Z TN12/0705Z TEMPO 0621/0709 SHRA PROB40 TEMPO 0623/0704 33015KT +SHRA SCT030TCU BKN050 PROB30 TEMPO 0700/0703 TSRA FEW030CB BKN040 BECMG 0710/0713 FEW050 SCT070

超过4000个机场的气象观测和天气预报(METAR&TAF报告)。

可查询的气象台以黄色和红色小点在地图上表示。

将鼠标移到小点上方,可查看气象台名称。

然后点击查看天气观测和预报。

如需切换地图:点击带黑十字的绿色按钮放大地图;点击带横线的绿色按钮缩小地图;或者点击绿色箭头查看邻近地区的地图。


METAR-TAF: